Time;durP1;ratioP1;P1;durP2;ratioP2;P2;SDS_P1;SDS_P2;PMS_P1;PMS_P2;Temp;Humidity;BMP_temperature;BMP_pressure;BME280_temperature;BME280_humidity;BME280_pressure;Samples;Min_cycle;Max_cycle;Signal;HPM_P1;HPM_P2
2022/07/12 00:02:23;;;;;;;;;4.50;4.00;;;;;24.29;49.85;102014.78;5094559;27;49813;-74
2022/07/12 00:04:49;;;;;;;;;5.50;4.00;;;;;24.14;50.09;101989.13;5094793;27;49818;-74
2022/07/12 00:07:14;;;;;;;;;5.00;4.75;;;;;24.38;49.90;102019.16;5094743;27;49591;-74
2022/07/12 00:09:39;;;;;;;;;5.50;4.25;;;;;24.12;50.00;101982.84;5095059;27;49871;-75
2022/07/12 00:12:05;;;;;;;;;5.50;4.25;;;;;24.31;50.21;102018.38;5094407;27;49595;-74
2022/07/12 00:14:31;;;;;;;;;6.75;5.50;;;;;24.23;50.43;102015.81;5094570;27;49701;-74
2022/07/12 00:16:56;;;;;;;;;4.50;4.25;;;;;23.79;50.64;101945.84;5094455;27;49554;-74
2022/07/12 00:19:22;;;;;;;;;3.50;3.50;;;;;23.28;50.93;101871.53;5094645;27;49591;-74
2022/07/12 00:21:47;;;;;;;;;7.00;5.75;;;;;23.88;50.97;101991.31;5093676;27;50495;-74
2022/07/12 00:24:13;;;;;;;;;4.50;4.25;;;;;23.76;51.07;101991.50;5097188;27;49723;-75
2022/07/12 00:26:38;;;;;;;;;3.50;3.50;;;;;23.93;51.33;102014.47;5094976;27;49684;-73
2022/07/12 00:29:04;;;;;;;;;3.50;3.50;;;;;23.07;51.11;101872.72;5094550;27;49743;-74
2022/07/12 00:31:29;;;;;;;;;4.00;4.00;;;;;23.78;51.28;101974.47;5094757;27;50278;-75
2022/07/12 00:33:54;;;;;;;;;4.00;3.00;;;;;24.09;51.07;102028.53;5094368;27;49815;-74
2022/07/12 00:36:20;;;;;;;;;3.00;3.00;;;;;23.37;51.06;101899.97;5094419;27;50017;-74
2022/07/12 00:38:46;;;;;;;;;5.00;5.00;;;;;23.87;51.19;101994.91;5094680;27;49800;-75
2022/07/12 00:41:12;;;;;;;;;6.00;5.00;;;;;23.98;51.51;102022.44;5094131;27;50583;-74
2022/07/12 00:43:37;;;;;;;;;8.00;6.75;;;;;23.05;51.60;101881.66;5094078;27;49731;-74
2022/07/12 00:46:03;;;;;;;;;5.00;5.00;;;;;23.17;51.92;101900.25;5094332;27;49797;-74
2022/07/12 00:48:28;;;;;;;;;5.25;4.00;;;;;23.00;52.04;101887.06;5094304;27;49820;-74
2022/07/12 00:50:53;;;;;;;;;5.00;5.00;;;;;23.47;51.93;101973.09;5094062;27;50641;-73
2022/07/12 00:53:23;;;;;;;;;6.00;4.00;;;;;23.40;52.36;101973.16;5094187;27;49735;-74
2022/07/12 00:55:52;;;;;;;;;3.25;3.25;;;;;23.02;52.23;101884.38;5092785;27;49596;-73
2022/07/12 00:58:17;;;;;;;;;3.75;3.00;;;;;23.76;52.60;102005.78;5093567;27;49896;-74
2022/07/12 01:00:42;;;;;;;;;5.00;4.25;;;;;22.75;52.44;101837.38;5093594;27;50352;-74
2022/07/12 01:03:08;;;;;;;;;5.25;4.00;;;;;23.16;52.59;101922.56;5094003;27;49866;-74
2022/07/12 01:05:33;;;;;;;;;6.75;4.50;;;;;23.11;52.40;101903.88;5092574;27;49862;-74
2022/07/12 01:07:59;;;;;;;;;3.00;3.00;;;;;23.06;52.51;101916.44;5094065;27;49821;-73
2022/07/12 01:10:24;;;;;;;;;5.00;4.00;;;;;23.53;52.85;101994.44;5093780;27;50199;-75
2022/07/12 01:12:50;;;;;;;;;4.00;3.00;;;;;23.24;53.10;101946.56;5093506;27;49501;-75
2022/07/12 01:15:15;;;;;;;;;2.50;2.50;;;;;23.56;52.34;102005.13;5093851;27;49544;-74
2022/07/12 01:17:44;;;;;;;;;4.00;4.00;;;;;22.62;52.71;101842.00;5094114;27;49755;-74
2022/07/12 01:20:10;;;;;;;;;5.25;4.25;;;;;23.03;52.45;101920.97;5093524;27;50610;-73
2022/07/12 01:22:40;;;;;;;;;4.50;4.50;;;;;22.60;52.66;101848.28;5093472;27;50540;-73
2022/07/12 01:25:06;;;;;;;;;2.25;2.25;;;;;23.09;52.98;101931.59;5093736;27;49724;-73
2022/07/12 01:27:32;;;;;;;;;4.00;3.00;;;;;23.51;52.83;102012.34;5093561;27;49841;-74
2022/07/12 01:29:57;;;;;;;;;3.75;3.75;;;;;22.91;52.99;101924.69;5093349;27;50660;-74
2022/07/12 01:32:26;;;;;;;;;3.00;3.00;;;;;23.51;53.29;102004.28;5093542;27;49758;-74
2022/07/12 01:35:03;;;;;;;;;3.00;3.00;;;;;23.33;53.32;101976.81;5093722;27;49977;-73
2022/07/12 01:37:33;;;;;;;;;2.50;2.50;;;;;22.81;53.55;101891.75;5093790;27;49741;-73
2022/07/12 01:39:59;;;;;;;;;4.00;4.00;;;;;23.28;53.57;101976.00;5093269;27;50782;-74
2022/07/12 01:42:28;;;;;;;;;4.25;4.25;;;;;22.15;53.82;101802.41;5092865;27;49864;-74
2022/07/12 01:44:54;;;;;;;;;3.00;3.00;;;;;23.23;54.06;101993.91;5093399;27;49621;-73
2022/07/12 01:47:20;;;;;;;;;3.50;3.50;;;;;23.22;54.11;101999.31;5097007;27;49987;-74
2022/07/12 01:49:45;;;;;;;;;4.00;4.00;;;;;23.00;54.18;101977.25;5096745;27;50004;-73
2022/07/12 01:52:12;;;;;;;;;3.25;3.25;;;;;22.54;54.21;101925.03;5096896;27;49669;-73
2022/07/12 01:54:38;;;;;;;;;3.25;3.00;;;;;22.67;54.32;101930.25;5097114;27;49865;-73
2022/07/12 01:57:05;;;;;;;;;3.50;3.50;;;;;23.13;54.75;102011.00;5096788;27;49791;-73
2022/07/12 01:59:30;;;;;;;;;4.50;4.50;;;;;22.95;54.48;101968.34;5096290;27;49671;-73
2022/07/12 02:01:56;;;;;;;;;4.25;4.25;;;;;23.18;54.61;102013.66;5096633;27;50073;-74
2022/07/12 02:04:22;;;;;;;;;4.00;4.00;;;;;22.43;54.89;101929.63;5096903;27;49822;-74
2022/07/12 02:06:48;;;;;;;;;6.50;4.25;;;;;22.68;55.06;101961.47;5096903;27;49778;-74
2022/07/12 02:09:15;;;;;;;;;5.50;4.00;;;;;22.98;55.36;102009.41;5096504;27;50709;-74
2022/07/12 02:11:41;;;;;;;;;7.00;5.00;;;;;22.88;55.30;101991.66;5096193;27;49650;-73
2022/07/12 02:14:07;;;;;;;;;3.75;3.00;;;;;22.66;55.66;101965.97;5096417;27;49624;-73
2022/07/12 02:16:32;;;;;;;;;4.25;4.25;;;;;22.66;55.63;101958.81;5096443;27;49731;-73
2022/07/12 02:18:58;;;;;;;;;4.00;4.00;;;;;22.73;55.49;101973.91;5096267;27;49767;-73
2022/07/12 02:21:24;;;;;;;;;5.00;5.00;;;;;22.74;55.57;101981.03;5096374;27;50092;-73
2022/07/12 02:23:49;;;;;;;;;4.00;4.00;;;;;22.25;55.87;101903.91;5096471;27;49695;-74
2022/07/12 02:26:15;;;;;;;;;6.00;4.50;;;;;22.81;56.31;101995.25;5096264;27;50083;-73
2022/07/12 02:28:41;;;;;;;;;6.25;5.25;;;;;21.88;56.68;101879.25;5096171;27;49849;-74
2022/07/12 02:31:06;;;;;;;;;4.50;4.50;;;;;22.62;57.46;102013.28;5096320;27;49763;-74
2022/07/12 02:33:32;;;;;;;;;7.25;6.25;;;;;22.46;56.85;101988.44;5096003;27;50134;-75
2022/07/12 02:35:57;;;;;;;;;6.75;5.25;;;;;22.45;56.85;101975.09;5098627;27;49786;-74
2022/07/12 02:38:22;;;;;;;;;6.00;5.75;;;;;22.47;56.99;101979.50;5097041;27;50483;-73
2022/07/12 02:40:54;;;;;;;;;6.50;4.00;;;;;22.38;57.19;101979.59;5090350;27;49758;-74
2022/07/12 02:43:26;;;;;;;;;5.00;5.00;;;;;22.11;57.03;101921.91;5111079;27;49720;-73
2022/07/12 02:45:54;;;;;;;;;4.00;4.00;;;;;22.55;57.17;102016.91;5114573;27;49576;-74
2022/07/12 02:48:19;;;;;;;;;6.00;5.25;;;;;22.09;57.13;101944.19;5095681;27;50365;-75
2022/07/12 02:50:45;;;;;;;;;5.75;5.50;;;;;22.45;57.30;102013.44;5095903;27;49771;-75
2022/07/12 02:53:11;;;;;;;;;6.50;6.50;;;;;22.02;57.49;101940.66;5095911;27;49755;-74
2022/07/12 02:55:38;;;;;;;;;4.25;4.00;;;;;22.43;57.13;102011.69;5096045;27;49802;-73
2022/07/12 02:58:07;;;;;;;;;3.50;3.00;;;;;22.25;57.15;101991.31;5097324;27;50373;-74
2022/07/12 03:00:34;;;;;;;;;7.00;7.00;;;;;21.25;57.32;101833.38;5116269;27;49651;-74
2022/07/12 03:03:00;;;;;;;;;8.50;8.50;;;;;21.63;57.55;101913.31;5116383;27;49613;-72
2022/07/12 03:05:25;;;;;;;;;8.75;8.75;;;;;22.26;57.57;102031.41;5116423;27;49859;-74
2022/07/12 03:07:51;;;;;;;;;10.75;10.75;;;;;21.03;57.52;101835.25;5116257;27;50347;-74
2022/07/12 03:10:16;;;;;;;;;6.75;6.75;;;;;22.21;57.66;102019.00;5116127;27;49728;-74
2022/07/12 03:12:42;;;;;;;;;7.50;6.00;;;;;21.82;57.63;101958.63;5115937;27;49713;-74
2022/07/12 03:15:07;;;;;;;;;9.00;9.00;;;;;21.56;58.17;101937.41;5116541;27;49814;-73
2022/07/12 03:17:34;;;;;;;;;7.25;5.50;;;;;21.95;58.60;101992.38;5116027;27;49647;-73
2022/07/12 03:19:59;;;;;;;;;8.50;8.00;;;;;22.06;58.22;102024.41;5115991;27;49613;-74
2022/07/12 03:22:25;;;;;;;;;9.50;9.50;;;;;21.61;58.46;101959.63;5115848;27;49816;-75
2022/07/12 03:24:50;;;;;;;;;8.50;7.75;;;;;22.00;58.67;102014.63;5116327;27;49884;-73
2022/07/12 03:27:16;;;;;;;;;10.00;7.75;;;;;21.64;58.66;101957.84;5115611;27;49563;-73
2022/07/12 03:29:42;;;;;;;;;10.50;9.00;;;;;21.56;58.94;101948.09;5115949;27;49555;-74
2022/07/12 03:32:07;;;;;;;;;9.50;9.50;;;;;21.88;58.83;101993.31;5116047;27;49738;-74
2022/07/12 03:34:33;;;;;;;;;9.00;8.00;;;;;21.92;58.89;102003.13;5114043;27;49516;-73
2022/07/12 03:36:58;;;;;;;;;10.00;8.25;;;;;21.73;58.87;101996.09;5095073;27;49894;-73
2022/07/12 03:39:24;;;;;;;;;7.50;7.50;;;;;21.87;58.92;102015.59;5095107;27;49695;-74
2022/07/12 03:41:49;;;;;;;;;6.25;6.25;;;;;21.69;59.19;101990.75;5094875;27;49766;-74
2022/07/12 03:44:15;;;;;;;;;10.25;7.25;;;;;21.82;58.94;102002.28;5095390;27;49781;-74
2022/07/12 03:46:41;;;;;;;;;5.50;5.50;;;;;21.70;58.95;101988.97;5095028;27;50178;-74
2022/07/12 03:49:10;;;;;;;;;8.75;8.75;;;;;21.78;58.93;102012.97;5094984;27;49719;-72
2022/07/12 03:51:36;;;;;;;;;5.00;5.00;;;;;21.56;58.75;101990.84;5095254;27;49501;-73
2022/07/12 03:54:02;;;;;;;;;10.25;7.50;;;;;21.85;59.09;102041.47;5094903;27;49479;-76
2022/07/12 03:59:11;;;;;;;;;9.75;7.50;;;;;21.44;59.38;101981.09;5094480;27;49823;-74
2022/07/12 04:01:37;;;;;;;;;5.50;5.25;;;;;21.76;59.44;102054.88;5094835;27;49917;-74
2022/07/12 04:04:02;;;;;;;;;9.25;7.00;;;;;21.66;59.62;102038.88;5094973;27;49837;-75
2022/07/12 04:06:28;;;;;;;;;7.50;6.50;;;;;21.02;59.94;101940.28;5094563;27;50941;-74
2022/07/12 04:08:54;;;;;;;;;10.25;8.75;;;;;20.52;59.67;101847.06;5094069;27;49942;-75
2022/07/12 04:11:19;;;;;;;;;10.00;8.50;;;;;21.26;60.04;102002.53;5094713;27;50037;-73
2022/07/12 04:13:44;;;;;;;;;9.25;5.50;;;;;21.51;59.99;102011.34;5094824;27;49909;-75
2022/07/12 04:16:09;;;;;;;;;10.25;6.50;;;;;21.50;59.87;102022.91;5094357;27;49870;-74
2022/07/12 04:18:35;;;;;;;;;7.25;7.25;;;;;21.69;59.92;102046.00;5094595;27;49875;-74
2022/07/12 04:21:00;;;;;;;;;9.50;8.25;;;;;21.59;59.99;102031.78;5094563;27;49845;-74
2022/07/12 04:23:25;;;;;;;;;14.50;10.75;;;;;21.53;60.26;102047.88;5094689;27;50002;-73
2022/07/12 04:25:51;;;;;;;;;11.50;7.50;;;;;21.11;60.86;102020.34;5094077;27;50476;-76
2022/07/12 04:28:17;;;;;;;;;9.50;7.75;;;;;20.58;61.05;101925.28;5094507;27;49819;-73
2022/07/12 04:30:44;;;;;;;;;20.75;14.50;;;;;20.55;61.17;101925.28;5094536;27;49898;-73
2022/07/12 04:33:10;;;;;;;;;19.75;10.25;;;;;21.26;61.57;102047.91;5094496;27;49537;-74
2022/07/12 04:35:35;;;;;;;;;12.00;9.00;;;;;21.32;61.34;102061.28;5104891;27;49966;-75
2022/07/12 04:38:01;;;;;;;;;11.25;8.25;;;;;20.91;61.21;101970.56;5114856;27;49713;-74
2022/07/12 04:40:26;;;;;;;;;11.75;9.00;;;;;21.24;60.83;102045.25;5114911;27;49767;-74
2022/07/12 04:42:53;;;;;;;;;8.50;8.00;;;;;21.19;61.13;102015.00;5114813;27;49893;-75
2022/07/12 04:45:18;;;;;;;;;11.00;10.50;;;;;21.14;61.17;102017.69;5114676;27;50306;-73
2022/07/12 04:47:44;;;;;;;;;9.75;8.00;;;;;21.37;61.08;102049.69;5114798;27;49531;-76
2022/07/12 04:50:09;;;;;;;;;8.50;8.25;;;;;21.46;60.95;102056.78;5114834;27;49606;-75
2022/07/12 04:52:35;;;;;;;;;8.25;7.00;;;;;21.17;61.08;102013.22;5113567;27;49936;-73
2022/07/12 04:55:01;;;;;;;;;11.25;7.75;;;;;21.31;61.46;102035.47;5114811;27;49801;-75
2022/07/12 04:57:26;;;;;;;;;14.00;10.00;;;;;21.44;61.00;102069.28;5114583;27;49680;-75
2022/07/12 04:59:52;;;;;;;;;13.75;12.25;;;;;20.94;61.23;101971.47;5114435;27;49580;-77
2022/07/12 05:02:17;;;;;;;;;13.75;10.25;;;;;21.54;60.70;102067.44;5114859;27;49961;-74
2022/07/12 05:04:42;;;;;;;;;11.75;9.25;;;;;21.34;61.10;102035.47;5114458;27;50426;-70
2022/07/12 05:07:08;;;;;;;;;6.00;6.00;;;;;21.58;60.48;102056.72;5114594;27;49773;-74
2022/07/12 05:09:34;;;;;;;;;8.75;7.00;;;;;21.63;60.14;102051.38;5114614;27;49759;-77
2022/07/12 05:11:59;;;;;;;;;12.25;8.50;;;;;21.77;60.03;102053.97;5114585;27;49642;-72
2022/07/12 05:14:25;;;;;;;;;8.75;7.75;;;;;21.85;59.63;102066.41;5097880;27;49737;-82
2022/07/12 05:16:50;;;;;;;;;15.25;9.25;;;;;21.65;60.01;102041.56;5093087;27;49774;-71
2022/07/12 05:19:16;;;;;;;;;13.00;10.25;;;;;21.77;59.80;102059.31;5093165;27;50186;-75
2022/07/12 05:21:42;;;;;;;;;5.75;5.75;;;;;21.39;59.71;102002.47;5095786;27;49785;-72
2022/07/12 05:24:08;;;;;;;;;12.25;9.00;;;;;21.81;59.83;102075.34;5096752;27;49669;-74
2022/07/12 05:26:33;;;;;;;;;15.75;9.75;;;;;21.93;59.55;102102.03;5096362;27;49923;-73
2022/07/12 05:28:59;;;;;;;;;14.00;9.75;;;;;21.94;59.83;102108.25;5096911;27;49952;-74
2022/07/12 05:31:25;;;;;;;;;10.50;10.00;;;;;21.89;59.66;102099.34;5097288;27;49735;-73
2022/07/12 05:33:50;;;;;;;;;14.00;11.50;;;;;21.89;59.72;102096.69;5097274;27;50549;-72
2022/07/12 05:36:15;;;;;;;;;9.00;5.50;;;;;21.95;59.30;102100.22;5097079;27;49596;-72
2022/07/12 05:38:41;;;;;;;;;8.00;8.00;;;;;21.92;59.36;102088.66;5097088;27;50036;-74
2022/07/12 05:41:06;;;;;;;;;10.75;9.50;;;;;21.93;59.29;102095.78;5097295;27;49657;-74
2022/07/12 05:43:31;;;;;;;;;9.50;9.00;;;;;21.96;59.26;102102.00;5096807;27;49782;-75
2022/07/12 05:45:57;;;;;;;;;10.50;9.25;;;;;21.89;59.39;102086.00;5097057;27;49663;-72
2022/07/12 05:48:22;;;;;;;;;15.50;10.00;;;;;21.70;59.12;102072.69;5097065;27;49631;-74
2022/07/12 05:50:48;;;;;;;;;19.50;10.00;;;;;21.64;59.25;102046.03;5097004;27;50025;-75
2022/07/12 05:53:22;;;;;;;;;9.75;8.75;;;;;21.91;59.02;102094.91;5115739;27;52589;-74
2022/07/12 05:55:51;;;;;;;;;12.25;9.50;;;;;21.93;59.37;102112.72;5117112;27;49700;-73
2022/07/12 05:58:18;;;;;;;;;10.75;9.00;;;;;22.04;58.84;102114.44;5102627;27;49790;-73
2022/07/12 06:00:44;;;;;;;;;6.25;5.75;;;;;22.11;58.76;102113.56;5096817;27;49732;-74
2022/07/12 06:03:11;;;;;;;;;6.50;5.50;;;;;22.03;58.96;102134.94;5096508;27;50515;-75
2022/07/12 06:05:37;;;;;;;;;10.75;9.50;;;;;22.00;59.19;102116.22;5103411;27;49702;-71
2022/07/12 06:08:03;;;;;;;;;9.50;8.00;;;;;21.97;59.26;102113.56;5117230;27;49872;-76
2022/07/12 06:10:28;;;;;;;;;11.75;10.00;;;;;22.09;58.69;102118.00;5107237;27;49722;-74
2022/07/12 06:12:54;;;;;;;;;10.75;9.75;;;;;22.16;58.17;102107.28;5095930;27;50681;-75
2022/07/12 06:15:19;;;;;;;;;11.00;6.75;;;;;22.32;57.95;102118.78;5096614;27;49727;-74
2022/07/12 06:17:45;;;;;;;;;7.25;7.25;;;;;22.05;58.03;102084.13;5116422;27;49679;-74
2022/07/12 06:20:11;;;;;;;;;11.75;9.00;;;;;22.28;58.03;102117.88;5117079;27;49742;-74
2022/07/12 06:22:36;;;;;;;;;9.25;8.00;;;;;22.36;58.02;102130.34;5116829;27;50402;-72
2022/07/12 06:25:01;;;;;;;;;7.25;7.00;;;;;22.22;57.69;102104.56;5110544;27;49848;-71
2022/07/12 06:27:26;;;;;;;;;11.25;9.25;;;;;21.84;57.89;102043.25;5112741;27;49975;-74
2022/07/12 06:29:52;;;;;;;;;12.00;9.25;;;;;22.39;57.79;102132.97;5110713;27;50119;-76
2022/07/12 06:32:18;;;;;;;;;15.50;11.25;;;;;21.85;57.76;102050.38;5095812;27;50802;-75
2022/07/12 06:34:43;;;;;;;;;8.75;8.50;;;;;21.49;57.58;101963.25;5107945;27;49784;-75
2022/07/12 06:37:09;;;;;;;;;9.50;6.25;;;;;22.10;57.21;102053.84;5116026;27;49821;-76
2022/07/12 06:39:35;;;;;;;;;10.75;9.00;;;;;22.08;57.12;102042.25;5128716;27;49848;-76
2022/07/12 06:42:03;;;;;;;;;7.75;6.00;;;;;22.61;57.19;102131.97;5101158;27;49678;-74
2022/07/12 06:44:30;;;;;;;;;15.00;11.25;;;;;22.70;57.34;102129.22;5115925;27;49740;-76
2022/07/12 06:46:55;;;;;;;;;6.25;6.00;;;;;21.52;57.11;101928.53;5116689;27;49742;-76
2022/07/12 06:49:20;;;;;;;;;8.00;4.75;;;;;22.68;56.71;102106.00;5097763;27;49751;-75
2022/07/12 06:51:45;;;;;;;;;12.25;9.00;;;;;21.69;56.80;101936.41;5094629;27;50044;-75
2022/07/12 06:54:11;;;;;;;;;13.25;10.25;;;;;22.67;56.69;102109.59;5095816;27;49648;-76
2022/07/12 06:56:37;;;;;;;;;17.25;10.75;;;;;22.92;56.62;102138.00;5097746;27;49756;-74
2022/07/12 06:59:02;;;;;;;;;7.75;7.75;;;;;21.99;55.93;101967.41;5104381;27;49919;-75
2022/07/12 07:01:28;;;;;;;;;6.00;6.00;;;;;22.33;55.83;102020.69;5115824;27;49811;-73
2022/07/12 07:03:53;;;;;;;;;7.25;6.00;;;;;22.96;55.86;102153.13;5099067;27;49721;-72
2022/07/12 07:06:19;;;;;;;;;10.75;8.50;;;;;23.06;55.60;102114.63;5092857;27;50181;-74
2022/07/12 07:08:45;;;;;;;;;6.50;6.50;;;;;23.13;55.11;102137.78;5100579;27;49821;-74
2022/07/12 07:11:10;;;;;;;;;11.25;10.25;;;;;23.42;55.08;102129.47;5081666;27;49876;-75
2022/07/12 07:13:36;;;;;;;;;6.00;6.00;;;;;23.27;54.56;102077.84;5102711;27;49723;-74
2022/07/12 07:16:01;;;;;;;;;9.00;7.75;;;;;23.40;54.27;102107.16;5102867;27;49783;-74
2022/07/12 07:18:27;;;;;;;;;9.75;8.25;;;;;23.75;53.95;102123.78;5095421;27;49696;-73
2022/07/12 07:20:52;;;;;;;;;10.50;7.00;;;;;23.70;53.90;102107.72;5098222;27;50333;-74
2022/07/12 07:23:18;;;;;;;;;10.75;7.50;;;;;23.18;53.72;102001.13;5115676;27;49673;-74
2022/07/12 07:25:46;;;;;;;;;7.00;6.00;;;;;23.34;53.07;102031.28;5102447;27;49796;-74
2022/07/12 07:28:12;;;;;;;;;11.25;11.00;;;;;22.84;53.46;101974.72;5110263;27;49923;-74
2022/07/12 07:30:52;;;;;;;;;6.75;6.75;;;;;23.25;53.22;102060.88;5091307;27;50524;-75
2022/07/12 07:33:25;;;;;;;;;6.00;6.00;;;;;23.81;53.37;102139.78;5105224;27;49813;-75
2022/07/12 07:35:52;;;;;;;;;10.50;9.00;;;;;22.88;53.41;101975.59;5100934;27;49686;-77
2022/07/12 07:38:19;;;;;;;;;13.75;11.25;;;;;23.48;53.47;102074.91;5115248;27;49980;-77
2022/07/12 07:40:45;;;;;;;;;14.75;9.25;;;;;23.45;53.29;102034.75;5114787;27;49682;-77
2022/07/12 07:43:11;;;;;;;;;13.00;8.75;;;;;23.51;52.79;102063.25;5086630;27;50241;-77
2022/07/12 07:45:36;;;;;;;;;7.00;7.00;;;;;23.27;52.89;101984.97;5079884;27;49642;-77
2022/07/12 07:48:03;;;;;;;;;6.50;6.50;;;;;24.36;52.17;102142.66;5101276;27;50111;-75
2022/07/12 07:50:29;;;;;;;;;10.00;8.00;;;;;23.48;52.26;102004.34;5073374;27;50942;-75
2022/07/12 07:52:55;;;;;;;;;7.25;6.75;;;;;24.39;52.14;102150.66;5077671;27;49751;-75
2022/07/12 07:55:20;;;;;;;;;8.75;7.25;;;;;24.45;52.02;102145.19;5110257;27;49818;-76
2022/07/12 07:57:47;;;;;;;;;11.00;9.75;;;;;24.41;50.98;102130.03;5094485;27;49666;-75
2022/07/12 08:00:13;;;;;;;;;9.00;6.75;;;;;24.59;51.15;102147.66;5094329;27;50493;-76
2022/07/12 08:02:40;;;;;;;;;7.00;7.00;;;;;24.64;51.14;102155.66;5094481;27;49519;-76
2022/07/12 08:05:06;;;;;;;;;8.50;8.50;;;;;24.70;51.12;102147.50;5091509;27;49851;-76
2022/07/12 18:39:32;;;;;;;;;2.75;2.75;;;;;30.72;24.36;101919.91;5129107;27;50088;-68
2022/07/12 18:41:58;;;;;;;;;5.75;2.00;;;;;30.74;24.07;101916.16;5111499;27;49628;-78
2022/07/12 18:44:23;;;;;;;;;3.50;3.50;;;;;30.51;23.89;101869.34;5112494;27;49633;-82
2022/07/12 18:46:49;;;;;;;;;3.00;3.00;;;;;30.76;22.80;101916.97;5112320;27;49639;-77
2022/07/12 18:49:15;;;;;;;;;2.00;2.00;;;;;30.57;21.45;101883.47;5111072;27;49684;-73
2022/07/12 18:51:40;;;;;;;;;3.00;3.00;;;;;30.82;21.79;101914.94;5111608;27;49747;-66
2022/07/12 18:54:06;;;;;;;;;2.00;2.00;;;;;30.85;22.95;101909.38;5111761;27;50033;-75
2022/07/12 18:56:32;;;;;;;;;2.00;2.00;;;;;30.82;21.54;101913.09;5111554;27;50758;-64
2022/07/12 18:58:57;;;;;;;;;3.75;2.75;;;;;30.89;21.24;101921.84;5111570;27;49900;-78
2022/07/12 19:01:23;;;;;;;;;2.00;2.00;;;;;30.91;21.09;101920.81;5111336;27;49762;-69
2022/07/12 19:03:49;;;;;;;;;5.00;5.00;;;;;30.32;21.61;101816.00;5111709;27;49868;-77
2022/07/12 19:06:14;;;;;;;;;3.25;3.25;;;;;30.55;20.80;101854.69;5111508;27;49977;-75
2022/07/12 19:08:40;;;;;;;;;3.00;3.00;;;;;30.94;21.55;101927.91;5111162;27;49749;-78
2022/07/12 19:11:05;;;;;;;;;2.25;2.25;;;;;30.97;22.99;101927.78;5092735;27;49615;-64
2022/07/12 19:13:31;;;;;;;;;3.00;3.00;;;;;30.89;22.34;101917.31;5111059;27;49665;-66
2022/07/12 19:15:56;;;;;;;;;4.50;2.00;;;;;30.82;21.83;101920.34;5110803;27;49933;-66
2022/07/12 19:18:22;;;;;;;;;2.50;1.50;;;;;30.43;22.06;101862.44;5110651;27;49590;-62
2022/07/12 19:20:47;;;;;;;;;4.00;4.00;;;;;30.85;22.01;101922.91;5110937;27;49814;-67
2022/07/12 19:23:13;;;;;;;;;3.00;3.00;;;;;30.78;21.99;101914.19;5110681;27;49704;-61
2022/07/12 19:25:38;;;;;;;;;4.75;2.50;;;;;30.53;22.60;101879.16;5092064;27;51416;-60
2022/07/12 19:28:04;;;;;;;;;2.50;2.25;;;;;30.46;22.18;101875.84;5110293;27;49643;-62
2022/07/12 19:30:29;;;;;;;;;4.50;4.00;;;;;30.71;22.50;101935.28;5110641;27;49555;-61
2022/07/12 19:32:55;;;;;;;;;3.50;3.50;;;;;30.70;22.77;101928.09;5110698;27;49510;-61
2022/07/12 19:35:20;;;;;;;;;2.50;2.50;;;;;30.52;22.66;101903.63;5110195;27;49873;-60
2022/07/12 19:37:45;;;;;;;;;3.50;3.50;;;;;30.06;22.69;101835.19;5093675;27;50027;-60
2022/07/12 19:40:11;;;;;;;;;3.75;3.50;;;;;30.62;23.11;101929.34;5110335;27;49714;-61
2022/07/12 19:42:36;;;;;;;;;5.25;4.75;;;;;30.51;23.13;101924.41;5110154;27;50416;-60
2022/07/12 19:45:04;;;;;;;;;4.25;4.25;;;;;30.52;22.82;101931.59;5110089;27;50539;-60
2022/07/12 19:47:29;;;;;;;;;3.75;3.00;;;;;30.51;23.83;101928.97;5110129;27;49788;-61
2022/07/12 19:49:55;;;;;;;;;7.00;6.50;;;;;30.37;22.73;101925.00;5102223;27;49600;-60
2022/07/12 19:52:21;;;;;;;;;5.00;5.00;;;;;29.75;23.35;101841.03;5096517;27;49576;-60
2022/07/12 19:54:47;;;;;;;;;6.50;6.00;;;;;29.61;24.46;101812.72;5096135;27;50294;-60
2022/07/12 19:57:12;;;;;;;;;6.75;6.00;;;;;30.11;24.87;101928.84;5096111;27;49653;-61
2022/07/12 19:59:38;;;;;;;;;7.50;7.50;;;;;30.16;25.18;101934.94;5096540;27;49738;-61
2022/07/12 20:02:03;;;;;;;;;3.50;3.25;;;;;30.13;25.12;101943.22;5096683;27;49867;-61
2022/07/12 20:04:30;;;;;;;;;5.50;4.25;;;;;30.09;25.05;101932.56;5096041;27;50374;-61
2022/07/12 20:06:59;;;;;;;;;5.00;4.25;;;;;29.83;25.00;101907.44;5096161;27;49802;-60
2022/07/12 20:09:25;;;;;;;;;4.50;4.50;;;;;28.89;25.56;101765.19;5094861;27;49740;-61
2022/07/12 20:11:52;;;;;;;;;6.75;4.25;;;;;29.78;25.74;101927.50;5096226;27;49794;-61
2022/07/12 20:14:18;;;;;;;;;6.75;6.75;;;;;29.64;26.07;101920.84;5095926;27;50473;-61
2022/07/12 20:16:44;;;;;;;;;9.00;7.50;;;;;29.74;26.57;101952.94;5096093;27;49632;-62
2022/07/12 20:19:10;;;;;;;;;6.75;6.00;;;;;29.71;27.03;101963.88;5096019;27;49651;-61
2022/07/12 20:21:35;;;;;;;;;5.50;5.00;;;;;28.55;27.33;101779.09;5095978;27;49561;-61
2022/07/12 20:24:01;;;;;;;;;6.50;6.00;;;;;29.44;26.92;101936.97;5095841;27;50470;-60
2022/07/12 20:26:26;;;;;;;;;5.25;5.25;;;;;29.30;26.75;101923.97;5095745;27;49663;-61
2022/07/12 20:28:52;;;;;;;;;6.50;5.25;;;;;29.40;26.71;101954.22;5096001;27;49608;-61
2022/07/12 20:31:17;;;;;;;;;7.50;6.50;;;;;29.41;26.97;101969.53;5092436;27;49704;-63
2022/07/12 20:36:26;;;;;;;;;7.75;5.25;;;;;29.26;27.21;101968.31;5085746;27;49819;-61
2022/07/12 20:38:52;;;;;;;;;5.75;5.75;;;;;29.16;26.16;101955.19;5062628;27;49689;-60
2022/07/12 20:41:19;;;;;;;;;6.00;5.25;;;;;29.18;26.23;101964.13;5061087;28;49782;-61
2022/07/12 20:43:45;;;;;;;;;5.25;3.25;;;;;28.72;26.66;101911.72;5054832;28;50226;-61
2022/07/12 20:46:11;;;;;;;;;5.00;5.00;;;;;29.11;25.36;101968.88;5036866;28;49823;-61
2022/07/12 20:48:36;;;;;;;;;3.50;3.50;;;;;28.98;25.13;101957.63;5060709;28;49809;-61
2022/07/12 20:51:03;;;;;;;;;3.00;3.00;;;;;29.02;24.21;101980.03;5066624;28;49670;-62
2022/07/12 20:53:29;;;;;;;;;3.00;3.00;;;;;28.34;24.40;101868.06;5075108;28;50940;-62
2022/07/12 20:55:55;;;;;;;;;6.00;6.00;;;;;28.55;24.97;101903.34;5075065;28;49850;-63
2022/07/12 20:58:20;;;;;;;;;3.25;3.00;;;;;29.03;24.59;101971.84;5067015;28;49820;-60
2022/07/12 21:00:46;;;;;;;;;3.50;3.50;;;;;28.70;24.83;101944.22;5034028;28;49912;-61
2022/07/12 21:03:13;;;;;;;;;5.25;3.00;;;;;28.68;24.75;101919.09;5053899;28;50947;-61
2022/07/12 21:05:38;;;;;;;;;2.75;2.75;;;;;28.20;25.04;101862.28;5052877;28;49815;-61
2022/07/12 21:08:04;;;;;;;;;4.50;4.25;;;;;28.97;25.49;101980.22;5054200;28;49904;-62
2022/07/12 21:11:36;;;;;;;;;4.00;3.00;;;;;28.88;25.55;101971.53;5087792;27;49769;-74
2022/07/12 21:14:05;;;;;;;;;3.00;3.00;;;;;28.98;26.09;101981.97;5070144;28;49755;-65
2022/07/12 21:16:36;;;;;;;;;4.25;4.25;;;;;28.93;26.11;101975.84;5070397;28;49730;-73
2022/07/12 21:19:02;;;;;;;;;5.75;5.75;;;;;28.93;25.96;101972.25;5070158;28;50514;-69
2022/07/12 21:21:27;;;;;;;;;3.25;3.25;;;;;28.99;26.10;101986.44;5070164;28;49780;-72
2022/07/12 21:23:52;;;;;;;;;9.00;7.00;;;;;28.83;25.85;101965.38;5070079;28;49794;-68
2022/07/12 21:26:18;;;;;;;;;5.50;5.50;;;;;28.98;26.32;101990.09;5070212;28;49953;-71
2022/07/12 21:28:43;;;;;;;;;6.50;6.50;;;;;28.93;26.44;101985.75;5069993;28;50368;-71
2022/07/12 21:31:10;;;;;;;;;5.00;5.00;;;;;28.96;26.06;101989.25;5070081;28;49618;-67
2022/07/12 21:33:36;;;;;;;;;6.50;6.50;;;;;28.78;26.14;101962.88;5070159;28;49968;-72
2022/07/12 21:36:02;;;;;;;;;4.75;3.50;;;;;28.96;25.37;101986.56;5070230;28;49913;-68
2022/07/12 21:38:28;;;;;;;;;5.50;4.00;;;;;28.97;25.33;101980.22;5069805;28;49935;-73
2022/07/12 21:40:53;;;;;;;;;6.00;6.00;;;;;28.73;25.27;101936.00;5069862;28;49948;-72
2022/07/12 21:43:18;;;;;;;;;8.25;6.25;;;;;28.95;25.42;101978.47;5069779;28;49476;-70
2022/07/12 21:45:44;;;;;;;;;6.00;5.25;;;;;29.01;25.96;101983.66;5070139;28;49595;-72
2022/07/12 21:48:09;;;;;;;;;5.00;4.75;;;;;28.97;25.78;101982.91;5069598;28;50356;-65
2022/07/12 21:50:35;;;;;;;;;7.25;7.25;;;;;28.85;25.45;101960.78;5069672;28;49871;-72
2022/07/12 21:53:00;;;;;;;;;5.75;4.75;;;;;29.00;25.65;101984.63;5069706;28;49864;-66
2022/07/12 21:55:25;;;;;;;;;6.00;4.25;;;;;28.87;25.81;101965.25;5069923;28;49661;-71